sensor_id;sensor_type;location;lat;lon;timestamp;P1;durP1;ratioP1;P2;durP2;ratioP2
19161;SDS011;9713;48.140;11.530;2024-01-10T00:00:38;46.47;;;17.77;;
19161;SDS011;9713;48.140;11.530;2024-01-10T00:04:21;46.77;;;18.50;;
19161;SDS011;9713;48.140;11.530;2024-01-10T00:08:04;46.53;;;18.63;;
19161;SDS011;9713;48.140;11.530;2024-01-10T00:11:48;49.17;;;18.57;;
19161;SDS011;9713;48.140;11.530;2024-01-10T00:15:31;53.50;;;19.27;;
19161;SDS011;9713;48.140;11.530;2024-01-10T00:19:15;46.53;;;18.03;;
19161;SDS011;9713;48.140;11.530;2024-01-10T00:22:58;49.47;;;18.83;;
19161;SDS011;9713;48.140;11.530;2024-01-10T00:26:41;52.93;;;19.80;;
19161;SDS011;9713;48.140;11.530;2024-01-10T00:30:25;45.90;;;18.17;;
19161;SDS011;9713;48.140;11.530;2024-01-10T00:34:08;53.23;;;18.83;;
19161;SDS011;9713;48.140;11.530;2024-01-10T00:37:52;47.63;;;17.93;;
19161;SDS011;9713;48.140;11.530;2024-01-10T00:41:35;48.63;;;18.63;;
19161;SDS011;9713;48.140;11.530;2024-01-10T00:45:18;50.90;;;19.67;;
19161;SDS011;9713;48.140;11.530;2024-01-10T00:49:01;52.53;;;18.47;;
19161;SDS011;9713;48.140;11.530;2024-01-10T00:52:45;48.40;;;18.43;;
19161;SDS011;9713;48.140;11.530;2024-01-10T00:56:30;50.73;;;18.70;;
19161;SDS011;9713;48.140;11.530;2024-01-10T01:00:13;59.43;;;19.80;;
19161;SDS011;9713;48.140;11.530;2024-01-10T01:03:57;50.30;;;18.93;;
19161;SDS011;9713;48.140;11.530;2024-01-10T01:07:40;49.53;;;18.70;;
19161;SDS011;9713;48.140;11.530;2024-01-10T01:11:23;52.03;;;18.67;;
19161;SDS011;9713;48.140;11.530;2024-01-10T01:15:08;51.90;;;17.83;;
19161;SDS011;9713;48.140;11.530;2024-01-10T01:18:52;48.73;;;17.63;;
19161;SDS011;9713;48.140;11.530;2024-01-10T01:22:35;52.50;;;18.53;;
19161;SDS011;9713;48.140;11.530;2024-01-10T01:26:18;48.10;;;17.33;;
19161;SDS011;9713;48.140;11.530;2024-01-10T01:30:01;54.07;;;18.87;;
19161;SDS011;9713;48.140;11.530;2024-01-10T01:33:46;48.87;;;17.67;;
19161;SDS011;9713;48.140;11.530;2024-01-10T01:37:30;47.33;;;17.67;;
19161;SDS011;9713;48.140;11.530;2024-01-10T01:41:13;48.17;;;17.87;;
19161;SDS011;9713;48.140;11.530;2024-01-10T01:44:57;49.43;;;17.53;;
19161;SDS011;9713;48.140;11.530;2024-01-10T01:48:40;48.43;;;17.40;;
19161;SDS011;9713;48.140;11.530;2024-01-10T01:52:25;52.77;;;18.43;;
19161;SDS011;9713;48.140;11.530;2024-01-10T01:56:08;52.57;;;17.30;;
19161;SDS011;9713;48.140;11.530;2024-01-10T01:59:52;55.90;;;19.00;;
19161;SDS011;9713;48.140;11.530;2024-01-10T02:03:36;46.43;;;17.20;;
19161;SDS011;9713;48.140;11.530;2024-01-10T02:07:19;48.10;;;17.23;;
19161;SDS011;9713;48.140;11.530;2024-01-10T02:11:03;50.00;;;17.77;;
19161;SDS011;9713;48.140;11.530;2024-01-10T02:14:47;53.33;;;17.87;;
19161;SDS011;9713;48.140;11.530;2024-01-10T02:18:30;51.77;;;17.90;;
19161;SDS011;9713;48.140;11.530;2024-01-10T02:22:13;56.77;;;18.90;;
19161;SDS011;9713;48.140;11.530;2024-01-10T02:25:57;54.90;;;18.40;;
19161;SDS011;9713;48.140;11.530;2024-01-10T02:29:41;55.27;;;18.97;;
19161;SDS011;9713;48.140;11.530;2024-01-10T02:33:23;48.87;;;17.77;;
19161;SDS011;9713;48.140;11.530;2024-01-10T02:37:06;52.03;;;18.53;;
19161;SDS011;9713;48.140;11.530;2024-01-10T02:40:49;51.47;;;18.23;;
19161;SDS011;9713;48.140;11.530;2024-01-10T02:44:34;54.27;;;18.70;;
19161;SDS011;9713;48.140;11.530;2024-01-10T02:48:17;63.37;;;19.00;;
19161;SDS011;9713;48.140;11.530;2024-01-10T02:52:00;52.87;;;18.97;;
19161;SDS011;9713;48.140;11.530;2024-01-10T02:55:43;57.03;;;18.50;;
19161;SDS011;9713;48.140;11.530;2024-01-10T02:59:27;54.20;;;18.10;;
19161;SDS011;9713;48.140;11.530;2024-01-10T03:03:12;58.07;;;20.27;;
19161;SDS011;9713;48.140;11.530;2024-01-10T03:06:57;62.70;;;19.83;;
19161;SDS011;9713;48.140;11.530;2024-01-10T03:10:40;52.07;;;18.73;;
19161;SDS011;9713;48.140;11.530;2024-01-10T03:14:23;53.40;;;18.73;;
19161;SDS011;9713;48.140;11.530;2024-01-10T03:18:06;56.97;;;19.50;;
19161;SDS011;9713;48.140;11.530;2024-01-10T03:21:53;56.10;;;18.27;;
19161;SDS011;9713;48.140;11.530;2024-01-10T03:25:36;57.00;;;19.20;;
19161;SDS011;9713;48.140;11.530;2024-01-10T03:29:19;53.27;;;18.67;;
19161;SDS011;9713;48.140;11.530;2024-01-10T03:33:02;54.10;;;18.93;;
19161;SDS011;9713;48.140;11.530;2024-01-10T03:36:46;52.17;;;19.27;;
19161;SDS011;9713;48.140;11.530;2024-01-10T03:40:30;58.13;;;19.87;;
19161;SDS011;9713;48.140;11.530;2024-01-10T03:44:13;54.93;;;18.50;;
19161;SDS011;9713;48.140;11.530;2024-01-10T03:47:56;52.53;;;19.00;;
19161;SDS011;9713;48.140;11.530;2024-01-10T03:51:39;52.30;;;18.33;;
19161;SDS011;9713;48.140;11.530;2024-01-10T03:55:23;49.40;;;18.63;;
19161;SDS011;9713;48.140;11.530;2024-01-10T03:59:07;52.13;;;18.87;;
19161;SDS011;9713;48.140;11.530;2024-01-10T04:02:51;53.97;;;19.10;;
19161;SDS011;9713;48.140;11.530;2024-01-10T04:06:34;54.07;;;19.23;;
19161;SDS011;9713;48.140;11.530;2024-01-10T04:10:17;53.53;;;18.90;;
19161;SDS011;9713;48.140;11.530;2024-01-10T04:14:00;49.83;;;18.23;;
19161;SDS011;9713;48.140;11.530;2024-01-10T04:17:45;51.83;;;18.73;;
19161;SDS011;9713;48.140;11.530;2024-01-10T04:21:29;55.93;;;18.77;;
19161;SDS011;9713;48.140;11.530;2024-01-10T04:25:11;61.43;;;19.90;;
19161;SDS011;9713;48.140;11.530;2024-01-10T04:28:54;52.67;;;18.77;;
19161;SDS011;9713;48.140;11.530;2024-01-10T04:32:37;47.27;;;17.87;;
19161;SDS011;9713;48.140;11.530;2024-01-10T04:36:22;55.47;;;18.27;;
19161;SDS011;9713;48.140;11.530;2024-01-10T04:40:05;52.17;;;17.83;;
19161;SDS011;9713;48.140;11.530;2024-01-10T04:43:49;53.03;;;17.83;;
19161;SDS011;9713;48.140;11.530;2024-01-10T04:47:32;54.00;;;19.50;;
19161;SDS011;9713;48.140;11.530;2024-01-10T04:51:16;55.47;;;19.07;;
19161;SDS011;9713;48.140;11.530;2024-01-10T04:55:00;56.20;;;17.50;;
19161;SDS011;9713;48.140;11.530;2024-01-10T04:58:44;54.67;;;18.40;;
19161;SDS011;9713;48.140;11.530;2024-01-10T05:02:28;52.97;;;18.90;;
19161;SDS011;9713;48.140;11.530;2024-01-10T05:06:11;53.67;;;17.93;;
19161;SDS011;9713;48.140;11.530;2024-01-10T05:09:54;51.33;;;18.50;;
19161;SDS011;9713;48.140;11.530;2024-01-10T05:13:38;52.17;;;18.50;;
19161;SDS011;9713;48.140;11.530;2024-01-10T05:17:21;55.37;;;18.10;;
19161;SDS011;9713;48.140;11.530;2024-01-10T05:21:04;52.17;;;18.80;;
19161;SDS011;9713;48.140;11.530;2024-01-10T05:24:47;52.73;;;17.87;;
19161;SDS011;9713;48.140;11.530;2024-01-10T05:28:30;47.70;;;17.23;;
19161;SDS011;9713;48.140;11.530;2024-01-10T05:32:15;51.87;;;18.37;;
19161;SDS011;9713;48.140;11.530;2024-01-10T05:36:00;53.73;;;17.97;;
19161;SDS011;9713;48.140;11.530;2024-01-10T05:39:44;44.33;;;16.40;;
19161;SDS011;9713;48.140;11.530;2024-01-10T05:43:27;47.90;;;17.47;;
19161;SDS011;9713;48.140;11.530;2024-01-10T05:47:10;45.93;;;16.37;;
19161;SDS011;9713;48.140;11.530;2024-01-10T05:50:54;55.33;;;17.07;;
19161;SDS011;9713;48.140;11.530;2024-01-10T05:54:38;50.13;;;17.57;;
19161;SDS011;9713;48.140;11.530;2024-01-10T05:58:21;47.77;;;16.37;;
19161;SDS011;9713;48.140;11.530;2024-01-10T06:02:04;49.50;;;17.17;;
19161;SDS011;9713;48.140;11.530;2024-01-10T06:05:47;44.83;;;15.90;;
19161;SDS011;9713;48.140;11.530;2024-01-10T06:09:32;46.37;;;15.93;;
19161;SDS011;9713;48.140;11.530;2024-01-10T06:13:14;46.50;;;16.13;;
19161;SDS011;9713;48.140;11.530;2024-01-10T06:16:58;48.80;;;16.33;;
19161;SDS011;9713;48.140;11.530;2024-01-10T06:20:42;55.10;;;16.60;;
19161;SDS011;9713;48.140;11.530;2024-01-10T06:24:26;51.33;;;16.83;;
19161;SDS011;9713;48.140;11.530;2024-01-10T06:28:10;49.73;;;17.47;;
19161;SDS011;9713;48.140;11.530;2024-01-10T06:31:53;48.90;;;17.90;;
19161;SDS011;9713;48.140;11.530;2024-01-10T06:35:37;46.63;;;17.13;;
19161;SDS011;9713;48.140;11.530;2024-01-10T06:39:20;50.63;;;17.10;;
19161;SDS011;9713;48.140;11.530;2024-01-10T06:43:03;52.07;;;18.07;;
19161;SDS011;9713;48.140;11.530;2024-01-10T06:46:48;50.53;;;17.97;;
19161;SDS011;9713;48.140;11.530;2024-01-10T06:50:31;50.00;;;17.00;;
19161;SDS011;9713;48.140;11.530;2024-01-10T06:54:14;49.53;;;17.13;;
19161;SDS011;9713;48.140;11.530;2024-01-10T06:57:57;51.80;;;17.00;;
19161;SDS011;9713;48.140;11.530;2024-01-10T07:01:40;54.47;;;17.20;;
19161;SDS011;9713;48.140;11.530;2024-01-10T07:05:25;57.53;;;17.27;;
19161;SDS011;9713;48.140;11.530;2024-01-10T07:09:08;55.43;;;18.60;;
19161;SDS011;9713;48.140;11.530;2024-01-10T07:12:51;55.47;;;18.50;;
19161;SDS011;9713;48.140;11.530;2024-01-10T07:16:34;57.53;;;17.13;;
19161;SDS011;9713;48.140;11.530;2024-01-10T07:20:17;56.10;;;17.40;;
19161;SDS011;9713;48.140;11.530;2024-01-10T07:24:02;55.37;;;17.77;;
19161;SDS011;9713;48.140;11.530;2024-01-10T07:27:46;55.03;;;17.50;;
19161;SDS011;9713;48.140;11.530;2024-01-10T07:31:29;56.33;;;16.63;;
19161;SDS011;9713;48.140;11.530;2024-01-10T07:35:13;62.47;;;19.50;;
19161;SDS011;9713;48.140;11.530;2024-01-10T07:38:56;62.97;;;19.37;;
19161;SDS011;9713;48.140;11.530;2024-01-10T07:42:45;64.50;;;18.23;;
19161;SDS011;9713;48.140;11.530;2024-01-10T07:46:28;51.77;;;16.93;;
19161;SDS011;9713;48.140;11.530;2024-01-10T07:50:11;53.40;;;17.50;;
19161;SDS011;9713;48.140;11.530;2024-01-10T07:53:56;56.63;;;18.07;;
19161;SDS011;9713;48.140;11.530;2024-01-10T07:57:40;56.17;;;18.77;;
19161;SDS011;9713;48.140;11.530;2024-01-10T08:01:25;52.97;;;18.03;;
19161;SDS011;9713;48.140;11.530;2024-01-10T08:05:08;52.63;;;18.27;;
19161;SDS011;9713;48.140;11.530;2024-01-10T08:08:52;56.77;;;18.87;;
19161;SDS011;9713;48.140;11.530;2024-01-10T08:12:34;61.23;;;19.50;;
19161;SDS011;9713;48.140;11.530;2024-01-10T08:16:18;54.53;;;17.63;;
19161;SDS011;9713;48.140;11.530;2024-01-10T08:20:02;57.33;;;18.17;;
19161;SDS011;9713;48.140;11.530;2024-01-10T08:23:47;51.87;;;18.03;;
19161;SDS011;9713;48.140;11.530;2024-01-10T08:27:30;56.70;;;19.13;;
19161;SDS011;9713;48.140;11.530;2024-01-10T08:31:16;51.47;;;18.43;;
19161;SDS011;9713;48.140;11.530;2024-01-10T08:34:59;59.20;;;19.30;;
19161;SDS011;9713;48.140;11.530;2024-01-10T08:38:43;60.73;;;20.37;;
19161;SDS011;9713;48.140;11.530;2024-01-10T08:42:26;57.43;;;19.37;;
19161;SDS011;9713;48.140;11.530;2024-01-10T08:46:09;54.30;;;19.23;;
19161;SDS011;9713;48.140;11.530;2024-01-10T08:49:53;55.83;;;18.73;;
19161;SDS011;9713;48.140;11.530;2024-01-10T08:53:36;56.87;;;19.20;;
19161;SDS011;9713;48.140;11.530;2024-01-10T08:57:20;57.43;;;20.10;;
19161;SDS011;9713;48.140;11.530;2024-01-10T09:01:03;63.63;;;20.77;;
19161;SDS011;9713;48.140;11.530;2024-01-10T09:04:47;59.77;;;20.33;;
19161;SDS011;9713;48.140;11.530;2024-01-10T09:08:30;56.97;;;19.67;;
19161;SDS011;9713;48.140;11.530;2024-01-10T09:12:13;61.20;;;20.33;;
19161;SDS011;9713;48.140;11.530;2024-01-10T09:15:57;63.10;;;20.67;;
19161;SDS011;9713;48.140;11.530;2024-01-10T09:19:40;59.13;;;20.87;;
19161;SDS011;9713;48.140;11.530;2024-01-10T09:23:24;65.00;;;21.87;;
19161;SDS011;9713;48.140;11.530;2024-01-10T09:27:08;59.93;;;20.23;;
19161;SDS011;9713;48.140;11.530;2024-01-10T09:30:52;62.27;;;21.00;;
19161;SDS011;9713;48.140;11.530;2024-01-10T09:34:37;61.87;;;21.13;;
19161;SDS011;9713;48.140;11.530;2024-01-10T09:38:20;60.60;;;21.23;;
19161;SDS011;9713;48.140;11.530;2024-01-10T09:42:03;58.20;;;20.47;;
19161;SDS011;9713;48.140;11.530;2024-01-10T09:45:48;63.60;;;21.70;;
19161;SDS011;9713;48.140;11.530;2024-01-10T09:49:32;57.97;;;20.50;;
19161;SDS011;9713;48.140;11.530;2024-01-10T09:53:18;56.83;;;21.67;;
19161;SDS011;9713;48.140;11.530;2024-01-10T09:57:05;57.27;;;20.47;;
19161;SDS011;9713;48.140;11.530;2024-01-10T10:00:48;60.17;;;21.30;;
19161;SDS011;9713;48.140;11.530;2024-01-10T10:04:31;59.47;;;19.87;;
19161;SDS011;9713;48.140;11.530;2024-01-10T10:08:14;53.23;;;20.03;;
19161;SDS011;9713;48.140;11.530;2024-01-10T10:12:05;65.37;;;20.80;;
19161;SDS011;9713;48.140;11.530;2024-01-10T10:15:50;54.30;;;19.60;;
19161;SDS011;9713;48.140;11.530;2024-01-10T10:19:40;55.17;;;20.23;;
19161;SDS011;9713;48.140;11.530;2024-01-10T10:23:23;55.70;;;20.10;;
19161;SDS011;9713;48.140;11.530;2024-01-10T10:27:12;54.47;;;20.53;;
19161;SDS011;9713;48.140;11.530;2024-01-10T10:30:56;56.40;;;20.07;;
19161;SDS011;9713;48.140;11.530;2024-01-10T10:34:39;57.70;;;20.77;;
19161;SDS011;9713;48.140;11.530;2024-01-10T10:38:22;58.67;;;20.20;;
19161;SDS011;9713;48.140;11.530;2024-01-10T10:42:06;56.27;;;20.17;;
19161;SDS011;9713;48.140;11.530;2024-01-10T10:45:55;60.80;;;22.60;;
19161;SDS011;9713;48.140;11.530;2024-01-10T10:49:41;58.33;;;21.87;;
19161;SDS011;9713;48.140;11.530;2024-01-10T10:53:29;58.10;;;21.17;;
19161;SDS011;9713;48.140;11.530;2024-01-10T10:57:13;56.20;;;21.20;;
19161;SDS011;9713;48.140;11.530;2024-01-10T11:00:57;50.87;;;19.50;;
19161;SDS011;9713;48.140;11.530;2024-01-10T11:04:45;56.20;;;20.60;;
19161;SDS011;9713;48.140;11.530;2024-01-10T11:08:29;55.30;;;20.30;;
19161;SDS011;9713;48.140;11.530;2024-01-10T11:12:17;56.80;;;21.67;;
19161;SDS011;9713;48.140;11.530;2024-01-10T11:16:23;55.23;;;21.43;;
19161;SDS011;9713;48.140;11.530;2024-01-10T11:20:21;53.67;;;21.23;;
19161;SDS011;9713;48.140;11.530;2024-01-10T11:24:13;54.70;;;20.77;;
19161;SDS011;9713;48.140;11.530;2024-01-10T11:27:57;55.57;;;20.27;;
19161;SDS011;9713;48.140;11.530;2024-01-10T11:31:46;54.43;;;21.57;;
19161;SDS011;9713;48.140;11.530;2024-01-10T11:35:33;62.93;;;22.73;;
19161;SDS011;9713;48.140;11.530;2024-01-10T11:39:16;61.43;;;22.13;;
19161;SDS011;9713;48.140;11.530;2024-01-10T11:43:02;55.63;;;21.20;;
19161;SDS011;9713;48.140;11.530;2024-01-10T11:46:49;54.07;;;20.50;;
19161;SDS011;9713;48.140;11.530;2024-01-10T11:50:33;54.93;;;21.47;;
19161;SDS011;9713;48.140;11.530;2024-01-10T11:58:18;55.23;;;21.00;;
19161;SDS011;9713;48.140;11.530;2024-01-10T12:02:02;54.03;;;20.97;;
19161;SDS011;9713;48.140;11.530;2024-01-10T12:05:46;53.80;;;21.80;;
19161;SDS011;9713;48.140;11.530;2024-01-10T12:09:30;63.13;;;22.77;;
19161;SDS011;9713;48.140;11.530;2024-01-10T12:13:13;59.77;;;22.93;;
19161;SDS011;9713;48.140;11.530;2024-01-10T12:16:59;62.77;;;24.70;;
19161;SDS011;9713;48.140;11.530;2024-01-10T12:20:44;53.63;;;22.33;;
19161;SDS011;9713;48.140;11.530;2024-01-10T12:24:27;61.97;;;23.57;;
19161;SDS011;9713;48.140;11.530;2024-01-10T12:28:15;65.13;;;23.57;;
19161;SDS011;9713;48.140;11.530;2024-01-10T12:31:58;67.93;;;24.17;;
19161;SDS011;9713;48.140;11.530;2024-01-10T12:35:43;67.23;;;24.00;;
19161;SDS011;9713;48.140;11.530;2024-01-10T12:39:26;60.50;;;23.87;;
19161;SDS011;9713;48.140;11.530;2024-01-10T12:43:13;59.03;;;23.43;;
19161;SDS011;9713;48.140;11.530;2024-01-10T12:46:58;63.97;;;23.50;;
19161;SDS011;9713;48.140;11.530;2024-01-10T12:50:42;64.50;;;22.70;;
19161;SDS011;9713;48.140;11.530;2024-01-10T12:54:26;59.77;;;23.60;;
19161;SDS011;9713;48.140;11.530;2024-01-10T12:58:09;60.07;;;21.97;;
19161;SDS011;9713;48.140;11.530;2024-01-10T13:01:52;61.43;;;23.93;;
19161;SDS011;9713;48.140;11.530;2024-01-10T13:05:35;56.00;;;22.10;;
19161;SDS011;9713;48.140;11.530;2024-01-10T13:09:20;59.30;;;23.13;;
19161;SDS011;9713;48.140;11.530;2024-01-10T13:13:03;54.17;;;22.90;;
19161;SDS011;9713;48.140;11.530;2024-01-10T13:16:46;65.37;;;25.20;;
19161;SDS011;9713;48.140;11.530;2024-01-10T13:20:40;58.93;;;22.83;;
19161;SDS011;9713;48.140;11.530;2024-01-10T13:24:24;64.40;;;24.77;;
19161;SDS011;9713;48.140;11.530;2024-01-10T13:28:07;60.97;;;25.03;;
19161;SDS011;9713;48.140;11.530;2024-01-10T13:31:50;60.47;;;23.57;;
19161;SDS011;9713;48.140;11.530;2024-01-10T13:35:33;61.33;;;25.03;;
19161;SDS011;9713;48.140;11.530;2024-01-10T13:39:17;60.20;;;23.53;;
19161;SDS011;9713;48.140;11.530;2024-01-10T13:43:02;63.30;;;24.67;;
19161;SDS011;9713;48.140;11.530;2024-01-10T13:46:45;57.00;;;23.90;;
19161;SDS011;9713;48.140;11.530;2024-01-10T13:50:31;58.03;;;23.33;;
19161;SDS011;9713;48.140;11.530;2024-01-10T13:54:14;59.63;;;23.07;;
19161;SDS011;9713;48.140;11.530;2024-01-10T13:57:58;53.37;;;22.33;;
19161;SDS011;9713;48.140;11.530;2024-01-10T14:01:42;53.93;;;21.70;;
19161;SDS011;9713;48.140;11.530;2024-01-10T14:05:26;61.80;;;24.10;;
19161;SDS011;9713;48.140;11.530;2024-01-10T14:09:10;60.53;;;23.30;;
19161;SDS011;9713;48.140;11.530;2024-01-10T14:12:54;64.80;;;24.43;;
19161;SDS011;9713;48.140;11.530;2024-01-10T14:16:37;64.07;;;25.10;;
19161;SDS011;9713;48.140;11.530;2024-01-10T14:20:21;60.10;;;24.27;;
19161;SDS011;9713;48.140;11.530;2024-01-10T14:24:04;61.27;;;23.13;;
19161;SDS011;9713;48.140;11.530;2024-01-10T14:27:48;61.90;;;22.97;;
19161;SDS011;9713;48.140;11.530;2024-01-10T14:31:31;59.50;;;22.80;;
19161;SDS011;9713;48.140;11.530;2024-01-10T14:35:36;58.33;;;21.90;;
19161;SDS011;9713;48.140;11.530;2024-01-10T14:39:19;62.97;;;22.83;;
19161;SDS011;9713;48.140;11.530;2024-01-10T14:43:03;63.27;;;23.67;;
19161;SDS011;9713;48.140;11.530;2024-01-10T14:46:48;62.50;;;24.53;;
19161;SDS011;9713;48.140;11.530;2024-01-10T14:50:45;57.03;;;22.07;;
19161;SDS011;9713;48.140;11.530;2024-01-10T14:54:29;58.53;;;23.03;;
19161;SDS011;9713;48.140;11.530;2024-01-10T14:58:12;56.93;;;21.03;;
19161;SDS011;9713;48.140;11.530;2024-01-10T15:01:55;59.27;;;21.87;;
19161;SDS011;9713;48.140;11.530;2024-01-10T15:05:40;60.83;;;21.73;;
19161;SDS011;9713;48.140;11.530;2024-01-10T15:09:25;56.63;;;20.80;;
19161;SDS011;9713;48.140;11.530;2024-01-10T15:13:10;60.73;;;21.90;;
19161;SDS011;9713;48.140;11.530;2024-01-10T15:16:55;63.17;;;22.10;;
19161;SDS011;9713;48.140;11.530;2024-01-10T15:20:40;57.13;;;21.87;;
19161;SDS011;9713;48.140;11.530;2024-01-10T15:24:27;62.77;;;23.60;;
19161;SDS011;9713;48.140;11.530;2024-01-10T15:28:10;57.87;;;21.73;;
19161;SDS011;9713;48.140;11.530;2024-01-10T15:31:53;61.93;;;22.07;;
19161;SDS011;9713;48.140;11.530;2024-01-10T15:35:36;60.60;;;21.27;;
19161;SDS011;9713;48.140;11.530;2024-01-10T15:39:19;61.63;;;22.30;;
19161;SDS011;9713;48.140;11.530;2024-01-10T15:43:04;62.50;;;21.37;;
19161;SDS011;9713;48.140;11.530;2024-01-10T15:46:47;60.20;;;21.30;;
19161;SDS011;9713;48.140;11.530;2024-01-10T15:50:31;59.67;;;20.97;;
19161;SDS011;9713;48.140;11.530;2024-01-10T15:54:14;62.43;;;21.90;;
19161;SDS011;9713;48.140;11.530;2024-01-10T15:57:57;58.87;;;20.87;;
19161;SDS011;9713;48.140;11.530;2024-01-10T16:01:41;60.80;;;21.90;;
19161;SDS011;9713;48.140;11.530;2024-01-10T16:05:24;63.27;;;22.40;;
19161;SDS011;9713;48.140;11.530;2024-01-10T16:09:07;68.77;;;22.50;;
19161;SDS011;9713;48.140;11.530;2024-01-10T16:12:51;67.30;;;22.57;;
19161;SDS011;9713;48.140;11.530;2024-01-10T16:16:35;64.07;;;22.30;;
19161;SDS011;9713;48.140;11.530;2024-01-10T16:20:19;69.67;;;23.20;;
19161;SDS011;9713;48.140;11.530;2024-01-10T16:24:02;75.20;;;23.97;;
19161;SDS011;9713;48.140;11.530;2024-01-10T16:27:45;72.70;;;23.50;;
19161;SDS011;9713;48.140;11.530;2024-01-10T16:31:29;67.23;;;22.53;;
19161;SDS011;9713;48.140;11.530;2024-01-10T16:35:11;62.40;;;20.40;;
19161;SDS011;9713;48.140;11.530;2024-01-10T16:38:58;65.17;;;21.27;;
19161;SDS011;9713;48.140;11.530;2024-01-10T16:42:40;65.03;;;20.90;;
19161;SDS011;9713;48.140;11.530;2024-01-10T16:46:23;60.97;;;20.23;;
19161;SDS011;9713;48.140;11.530;2024-01-10T16:50:10;60.63;;;20.57;;
19161;SDS011;9713;48.140;11.530;2024-01-10T16:53:53;64.67;;;21.30;;
19161;SDS011;9713;48.140;11.530;2024-01-10T16:57:38;64.43;;;21.60;;
19161;SDS011;9713;48.140;11.530;2024-01-10T17:01:20;63.67;;;21.07;;
19161;SDS011;9713;48.140;11.530;2024-01-10T17:05:04;68.27;;;22.33;;
19161;SDS011;9713;48.140;11.530;2024-01-10T17:08:47;71.23;;;22.30;;
19161;SDS011;9713;48.140;11.530;2024-01-10T17:12:30;75.90;;;22.87;;
19161;SDS011;9713;48.140;11.530;2024-01-10T17:16:16;70.10;;;21.97;;
19161;SDS011;9713;48.140;11.530;2024-01-10T17:19:59;81.43;;;24.97;;
19161;SDS011;9713;48.140;11.530;2024-01-10T17:23:42;81.13;;;25.13;;
19161;SDS011;9713;48.140;11.530;2024-01-10T17:27:25;82.23;;;24.73;;
19161;SDS011;9713;48.140;11.530;2024-01-10T17:31:09;80.17;;;25.13;;
19161;SDS011;9713;48.140;11.530;2024-01-10T17:34:55;75.47;;;22.63;;
19161;SDS011;9713;48.140;11.530;2024-01-10T17:38:39;67.90;;;22.13;;
19161;SDS011;9713;48.140;11.530;2024-01-10T17:42:22;73.47;;;21.77;;
19161;SDS011;9713;48.140;11.530;2024-01-10T17:46:05;70.67;;;20.87;;
19161;SDS011;9713;48.140;11.530;2024-01-10T17:49:51;70.43;;;21.73;;
19161;SDS011;9713;48.140;11.530;2024-01-10T17:53:35;64.53;;;21.53;;
19161;SDS011;9713;48.140;11.530;2024-01-10T17:57:19;64.33;;;21.40;;
19161;SDS011;9713;48.140;11.530;2024-01-10T18:01:08;74.20;;;22.17;;
19161;SDS011;9713;48.140;11.530;2024-01-10T18:04:51;70.90;;;22.77;;
19161;SDS011;9713;48.140;11.530;2024-01-10T18:08:36;76.00;;;22.33;;
19161;SDS011;9713;48.140;11.530;2024-01-10T18:12:18;80.13;;;22.63;;
19161;SDS011;9713;48.140;11.530;2024-01-10T18:16:01;72.00;;;22.47;;
19161;SDS011;9713;48.140;11.530;2024-01-10T18:19:45;62.07;;;19.20;;
19161;SDS011;9713;48.140;11.530;2024-01-10T18:23:28;71.00;;;21.30;;
19161;SDS011;9713;48.140;11.530;2024-01-10T18:27:13;62.83;;;20.17;;
19161;SDS011;9713;48.140;11.530;2024-01-10T18:30:56;66.23;;;21.20;;
19161;SDS011;9713;48.140;11.530;2024-01-10T18:34:39;68.53;;;21.37;;
19161;SDS011;9713;48.140;11.530;2024-01-10T18:38:22;62.57;;;20.83;;
19161;SDS011;9713;48.140;11.530;2024-01-10T18:42:05;61.03;;;20.63;;
19161;SDS011;9713;48.140;11.530;2024-01-10T18:45:51;67.10;;;20.80;;
19161;SDS011;9713;48.140;11.530;2024-01-10T18:49:34;65.47;;;20.17;;
19161;SDS011;9713;48.140;11.530;2024-01-10T18:53:16;73.47;;;23.20;;
19161;SDS011;9713;48.140;11.530;2024-01-10T18:56:59;73.73;;;21.70;;
19161;SDS011;9713;48.140;11.530;2024-01-10T19:00:42;64.37;;;20.57;;
19161;SDS011;9713;48.140;11.530;2024-01-10T19:04:27;71.70;;;22.93;;
19161;SDS011;9713;48.140;11.530;2024-01-10T19:08:12;64.97;;;21.20;;
19161;SDS011;9713;48.140;11.530;2024-01-10T19:11:56;61.73;;;20.73;;
19161;SDS011;9713;48.140;11.530;2024-01-10T19:15:45;68.53;;;22.90;;
19161;SDS011;9713;48.140;11.530;2024-01-10T19:19:29;67.00;;;21.43;;
19161;SDS011;9713;48.140;11.530;2024-01-10T19:23:17;68.23;;;21.00;;
19161;SDS011;9713;48.140;11.530;2024-01-10T19:27:01;60.50;;;20.37;;
19161;SDS011;9713;48.140;11.530;2024-01-10T19:30:44;78.27;;;23.13;;
19161;SDS011;9713;48.140;11.530;2024-01-10T19:34:28;63.63;;;21.87;;
19161;SDS011;9713;48.140;11.530;2024-01-10T19:38:12;72.90;;;21.90;;
19161;SDS011;9713;48.140;11.530;2024-01-10T19:41:55;69.53;;;22.87;;
19161;SDS011;9713;48.140;11.530;2024-01-10T19:45:38;67.03;;;22.20;;
19161;SDS011;9713;48.140;11.530;2024-01-10T19:49:21;65.17;;;21.73;;
19161;SDS011;9713;48.140;11.530;2024-01-10T19:53:05;62.33;;;20.07;;
19161;SDS011;9713;48.140;11.530;2024-01-10T19:56:49;69.87;;;23.03;;
19161;SDS011;9713;48.140;11.530;2024-01-10T20:00:32;66.87;;;23.10;;
19161;SDS011;9713;48.140;11.530;2024-01-10T20:04:15;60.57;;;21.97;;
19161;SDS011;9713;48.140;11.530;2024-01-10T20:07:58;70.10;;;22.03;;
19161;SDS011;9713;48.140;11.530;2024-01-10T20:11:42;68.83;;;21.70;;
19161;SDS011;9713;48.140;11.530;2024-01-10T20:15:25;69.20;;;21.87;;
19161;SDS011;9713;48.140;11.530;2024-01-10T20:19:09;62.27;;;21.30;;
19161;SDS011;9713;48.140;11.530;2024-01-10T20:22:52;64.90;;;22.17;;
19161;SDS011;9713;48.140;11.530;2024-01-10T20:26:36;67.40;;;21.37;;
19161;SDS011;9713;48.140;11.530;2024-01-10T20:30:20;64.80;;;23.23;;
19161;SDS011;9713;48.140;11.530;2024-01-10T20:34:03;70.13;;;22.57;;
19161;SDS011;9713;48.140;11.530;2024-01-10T20:37:47;62.27;;;21.43;;
19161;SDS011;9713;48.140;11.530;2024-01-10T20:41:30;67.00;;;23.47;;
19161;SDS011;9713;48.140;11.530;2024-01-10T20:45:13;72.13;;;24.67;;
19161;SDS011;9713;48.140;11.530;2024-01-10T20:49:01;64.97;;;21.73;;
19161;SDS011;9713;48.140;11.530;2024-01-10T20:52:44;70.93;;;23.43;;
19161;SDS011;9713;48.140;11.530;2024-01-10T20:56:27;68.27;;;23.43;;
19161;SDS011;9713;48.140;11.530;2024-01-10T21:00:11;81.43;;;26.50;;
19161;SDS011;9713;48.140;11.530;2024-01-10T21:03:54;75.17;;;25.40;;
19161;SDS011;9713;48.140;11.530;2024-01-10T21:07:39;79.07;;;26.27;;
19161;SDS011;9713;48.140;11.530;2024-01-10T21:11:22;73.73;;;23.30;;
19161;SDS011;9713;48.140;11.530;2024-01-10T21:15:05;73.40;;;23.63;;
19161;SDS011;9713;48.140;11.530;2024-01-10T21:18:48;83.37;;;27.00;;
19161;SDS011;9713;48.140;11.530;2024-01-10T21:22:31;66.73;;;23.23;;
19161;SDS011;9713;48.140;11.530;2024-01-10T21:26:16;90.40;;;28.83;;
19161;SDS011;9713;48.140;11.530;2024-01-10T21:29:59;74.47;;;24.40;;
19161;SDS011;9713;48.140;11.530;2024-01-10T21:33:43;77.23;;;24.07;;
19161;SDS011;9713;48.140;11.530;2024-01-10T21:37:27;77.80;;;23.43;;
19161;SDS011;9713;48.140;11.530;2024-01-10T21:41:10;71.97;;;24.20;;
19161;SDS011;9713;48.140;11.530;2024-01-10T21:44:55;68.70;;;22.23;;
19161;SDS011;9713;48.140;11.530;2024-01-10T21:48:39;69.67;;;21.47;;
19161;SDS011;9713;48.140;11.530;2024-01-10T21:52:22;64.83;;;21.37;;